Time;durP1;ratioP1;P1;durP2;ratioP2;P2;SDS_P1;SDS_P2;PMS_P1;PMS_P2;Temp;Humidity;BMP_temperature;BMP_pressure;BME280_temperature;BME280_humidity;BME280_pressure;Samples;Min_cycle;Max_cycle;Signal;HPM_P1;HPM_P2
2024/01/10 00:01:17;;;;;;;;;37.00;33.75;;;;;1.06;58.65;102113.28;5076535;28;45537;-77
2024/01/10 00:03:43;;;;;;;;;47.75;38.00;;;;;1.09;58.45;102115.78;5058905;28;45472;-77
2024/01/10 00:06:08;;;;;;;;;57.75;40.25;;;;;1.04;58.63;102109.84;5076235;28;46071;-77
2024/01/10 00:08:33;;;;;;;;;47.50;41.75;;;;;0.97;59.11;102117.03;5057979;28;45612;-77
2024/01/10 00:10:59;;;;;;;;;42.25;34.50;;;;;0.98;59.02;102118.72;5077111;28;45460;-76
2024/01/10 00:13:24;;;;;;;;;49.00;33.75;;;;;0.97;58.92;102122.25;5077133;28;45478;-78
2024/01/10 00:15:50;;;;;;;;;44.00;41.00;;;;;0.95;59.04;102121.44;5077360;28;46039;-77
2024/01/10 00:18:15;;;;;;;;;36.50;33.75;;;;;0.96;59.67;102111.84;5076174;28;45502;-77
2024/01/10 00:20:41;;;;;;;;;40.75;36.25;;;;;0.98;59.10;102120.50;5076384;28;45347;-77
2024/01/10 00:23:06;;;;;;;;;44.75;36.75;;;;;1.07;59.47;102120.22;5077102;28;45432;-77
2024/01/10 00:25:32;;;;;;;;;46.75;39.50;;;;;0.60;59.58;102036.19;5077848;28;45932;-76
2024/01/10 00:27:59;;;;;;;;;56.75;40.75;;;;;0.67;59.55;102048.19;5077092;28;45421;-75
2024/01/10 00:30:25;;;;;;;;;39.25;33.00;;;;;0.91;59.29;102089.28;5076647;28;45474;-76
2024/01/10 00:32:51;;;;;;;;;47.25;37.00;;;;;1.24;58.95;102115.28;5075467;28;45321;-78
2024/01/10 00:35:17;;;;;;;;;40.00;30.00;;;;;1.28;58.86;102109.03;5073522;28;46114;-76
2024/01/10 00:37:42;;;;;;;;;41.50;37.00;;;;;1.21;58.40;102089.19;5058697;28;45610;-75
2024/01/10 00:40:08;;;;;;;;;35.25;32.25;;;;;1.35;58.46;102102.66;5073817;28;45545;-77
2024/01/10 00:42:33;;;;;;;;;38.75;35.50;;;;;1.29;58.39;102118.59;5075016;28;45492;-76
2024/01/10 00:44:59;;;;;;;;;47.25;38.50;;;;;1.25;58.84;102100.44;5074591;28;46333;-76
2024/01/10 00:47:24;;;;;;;;;44.50;38.00;;;;;1.12;59.01;102094.72;5074848;28;45485;-74
2024/01/10 00:49:49;;;;;;;;;40.50;35.75;;;;;1.25;59.07;102097.81;5075553;28;45393;-75
2024/01/10 00:52:15;;;;;;;;;43.75;39.75;;;;;1.13;58.44;102084.19;5074156;28;45358;-76
2024/01/10 00:54:40;;;;;;;;;43.75;37.75;;;;;1.26;59.13;102105.63;5073044;28;45572;-75
2024/01/10 00:57:06;;;;;;;;;38.50;37.25;;;;;1.31;58.82;102094.97;5051264;28;45414;-75
2024/01/10 00:59:31;;;;;;;;;43.50;39.00;;;;;1.18;58.88;102058.69;5074853;28;45822;-75
2024/01/10 01:01:56;;;;;;;;;47.00;38.50;;;;;1.21;58.67;102073.47;5075018;28;45362;-76
2024/01/10 01:04:22;;;;;;;;;43.00;38.50;;;;;1.34;58.82;102097.47;5074968;28;45456;-74
2024/01/10 01:06:47;;;;;;;;;41.50;38.75;;;;;1.30;58.70;102088.88;5076007;28;45394;-76
2024/01/10 01:09:15;;;;;;;;;41.50;38.00;;;;;1.19;58.86;102067.41;5073092;28;45839;-76
2024/01/10 01:11:41;;;;;;;;;48.25;38.75;;;;;1.25;60.03;102087.31;5076388;28;45463;-76
2024/01/10 01:14:06;;;;;;;;;51.25;36.50;;;;;1.35;59.47;102086.09;5075507;28;46093;-76
2024/01/10 01:16:32;;;;;;;;;37.75;32.75;;;;;1.28;59.01;102081.97;5074818;28;45531;-76
2024/01/10 01:18:57;;;;;;;;;49.00;41.25;;;;;1.29;59.17;102092.41;5075496;28;45672;-77
2024/01/10 01:21:23;;;;;;;;;46.75;39.25;;;;;1.26;58.89;102089.91;5075486;28;45439;-77
2024/01/10 01:23:48;;;;;;;;;47.50;41.00;;;;;1.25;59.29;102098.66;5072906;28;46039;-76
2024/01/10 01:26:14;;;;;;;;;36.75;33.75;;;;;1.17;59.18;102087.56;5073692;28;45422;-78
2024/01/10 01:28:39;;;;;;;;;43.50;36.50;;;;;1.14;59.28;102088.53;5073950;28;45484;-77
2024/01/10 01:31:05;;;;;;;;;46.50;40.00;;;;;1.13;59.44;102080.72;5075333;28;45322;-76
2024/01/10 01:33:30;;;;;;;;;60.50;43.75;;;;;1.27;59.23;102086.38;5075569;28;45316;-75
2024/01/10 01:35:56;;;;;;;;;47.50;41.00;;;;;1.17;59.04;102066.59;5075996;28;45708;-77
2024/01/10 01:38:21;;;;;;;;;51.00;41.50;;;;;1.38;59.13;102086.84;5075065;28;45401;-77
2024/01/10 01:40:46;;;;;;;;;45.25;37.50;;;;;1.38;58.68;102081.59;5077991;28;45342;-75
2024/01/10 01:43:19;;;;;;;;;47.75;37.50;;;;;1.49;58.77;102082.09;5078962;28;45437;-75
2024/01/10 01:45:45;;;;;;;;;47.25;40.25;;;;;1.48;58.51;102080.38;5081204;28;45457;-76
2024/01/10 01:48:11;;;;;;;;;47.50;37.50;;;;;1.45;58.67;102092.75;5062775;28;45654;-75
2024/01/10 01:50:37;;;;;;;;;48.25;38.75;;;;;1.22;58.81;102064.72;5079494;28;45515;-79
2024/01/10 01:53:03;;;;;;;;;45.00;39.75;;;;;1.33;59.02;102091.38;5078894;28;45456;-76
2024/01/10 01:55:29;;;;;;;;;44.50;39.75;;;;;1.26;59.14;102089.91;5077966;28;45370;-75
2024/01/10 01:57:55;;;;;;;;;36.25;32.50;;;;;1.24;59.19;102096.09;5079065;28;45293;-75
2024/01/10 02:00:20;;;;;;;;;50.00;40.67;;;;;1.13;59.06;102062.38;5079112;28;45498;-75
2024/01/10 02:02:48;;;;;;;;;44.50;39.75;;;;;1.04;59.23;102041.75;5078771;28;45391;-76
2024/01/10 02:05:15;;;;;;;;;52.75;38.50;;;;;1.26;59.57;102084.66;5078639;28;45688;-79
2024/01/10 02:07:40;;;;;;;;;40.75;33.25;;;;;1.02;59.41;102038.34;5079330;28;45422;-77
2024/01/10 02:10:06;;;;;;;;;36.00;35.50;;;;;1.07;59.58;102059.97;5079624;28;45517;-78
2024/01/10 02:12:32;;;;;;;;;41.50;35.75;;;;;1.09;60.33;102079.13;5078511;28;45424;-76
2024/01/10 02:14:58;;;;;;;;;55.25;42.25;;;;;0.99;60.22;102088.16;5077221;28;45641;-76
2024/01/10 02:17:23;;;;;;;;;51.25;40.75;;;;;0.82;61.43;102079.13;5077458;28;45491;-79
2024/01/10 02:19:48;;;;;;;;;40.00;38.00;;;;;0.85;60.94;102072.91;5077819;28;45413;-75
2024/01/10 02:22:14;;;;;;;;;45.75;38.25;;;;;0.96;60.74;102080.41;5076996;28;45655;-78
2024/01/10 02:24:39;;;;;;;;;48.25;42.25;;;;;0.93;60.55;102072.66;5082351;28;45464;-77
2024/01/10 02:27:05;;;;;;;;;43.50;38.50;;;;;0.37;60.50;101968.91;5065907;28;45300;-76
2024/01/10 02:29:31;;;;;;;;;48.50;39.00;;;;;1.11;60.32;102079.91;5077775;28;45380;-75
2024/01/10 02:31:56;;;;;;;;;47.75;38.50;;;;;1.05;60.70;102080.13;5076899;28;45352;-77
2024/01/10 02:34:22;;;;;;;;;43.50;38.50;;;;;0.93;60.81;102054.34;5075290;28;45276;-76
2024/01/10 02:36:47;;;;;;;;;42.50;39.75;;;;;0.96;60.60;102075.19;5075974;28;45508;-76
2024/01/10 02:39:14;;;;;;;;;43.75;37.50;;;;;0.67;60.48;102013.31;5077301;28;45517;-76
2024/01/10 02:41:39;;;;;;;;;42.00;35.50;;;;;0.90;60.79;102066.63;5078003;28;45488;-75
2024/01/10 02:44:04;;;;;;;;;51.25;42.00;;;;;0.69;61.04;102042.91;5078478;28;45672;-77
2024/01/10 02:46:30;;;;;;;;;38.75;37.50;;;;;0.58;61.55;102056.31;5058833;28;45716;-77
2024/01/10 02:48:55;;;;;;;;;45.75;41.50;;;;;0.45;62.08;102036.69;5076926;28;45475;-75
2024/01/10 02:51:21;;;;;;;;;40.25;35.25;;;;;0.46;61.63;102075.03;5077227;27;46502;-76
2024/01/10 02:53:47;;;;;;;;;48.75;39.50;;;;;0.37;62.52;102072.66;5057373;28;45540;-76
2024/01/10 02:56:12;;;;;;;;;44.25;36.25;;;;;0.35;62.20;102051.78;5076681;28;45415;-76
2024/01/10 02:58:37;;;;;;;;;48.25;38.25;;;;;0.56;62.49;102055.50;5077607;28;45632;-76
2024/01/10 03:01:03;;;;;;;;;41.75;35.00;;;;;0.65;61.89;102062.22;5076134;28;45597;-75
2024/01/10 03:03:28;;;;;;;;;45.25;39.75;;;;;0.71;61.56;102043.72;5077579;28;45564;-75
2024/01/10 03:05:54;;;;;;;;;41.33;32.00;;;;;0.81;61.14;102030.28;5083122;28;45511;-76
2024/01/10 03:08:19;;;;;;;;;52.00;40.00;;;;;0.98;60.72;102055.88;5078552;28;45459;-77
2024/01/10 03:10:45;;;;;;;;;39.00;36.25;;;;;1.01;60.48;102054.97;5077546;28;46177;-77
2024/01/10 03:13:10;;;;;;;;;43.75;38.25;;;;;1.09;60.51;102055.53;5077229;28;45342;-76
2024/01/10 03:15:35;;;;;;;;;45.50;36.00;;;;;1.11;60.69;102058.97;5076579;28;45397;-74
2024/01/10 03:18:01;;;;;;;;;47.25;40.50;;;;;1.02;60.64;102048.81;5077031;28;45476;-76
2024/01/10 03:20:26;;;;;;;;;48.25;40.00;;;;;1.10;60.77;102062.50;5077336;28;45468;-76
2024/01/10 03:22:52;;;;;;;;;36.50;33.25;;;;;1.16;60.47;102057.03;5077209;28;45423;-76
2024/01/10 03:25:17;;;;;;;;;44.25;36.75;;;;;1.14;60.65;102053.63;5076725;28;45361;-78
2024/01/10 03:27:42;;;;;;;;;43.00;37.25;;;;;0.60;60.44;101969.03;5077344;28;45475;-76
2024/01/10 03:30:08;;;;;;;;;46.50;39.75;;;;;0.99;60.51;102043.66;5077800;28;46032;-76
2024/01/10 03:32:34;;;;;;;;;47.75;39.25;;;;;1.04;60.86;102044.38;5077610;28;45351;-77
2024/01/10 03:34:59;;;;;;;;;40.00;33.00;;;;;0.91;60.31;101995.03;5079139;28;45458;-78
2024/01/10 03:37:24;;;;;;;;;42.25;38.25;;;;;1.27;59.34;102033.97;5077865;27;45584;-77
2024/01/10 03:39:50;;;;;;;;;58.00;43.00;;;;;1.10;59.63;102033.69;5079004;28;45441;-76
2024/01/10 03:42:15;;;;;;;;;50.25;39.50;;;;;0.96;59.74;102007.94;5081947;28;45451;-75
2024/01/10 03:44:41;;;;;;;;;44.25;37.25;;;;;0.79;59.75;101969.25;5091119;28;44941;-75
2024/01/10 03:47:06;;;;;;;;;48.50;39.75;;;;;1.08;59.39;102018.03;5094841;28;45414;-76
2024/01/10 03:49:31;;;;;;;;;44.75;36.75;;;;;1.30;59.59;102036.47;5093120;28;45571;-75
2024/01/10 03:51:57;;;;;;;;;42.75;34.75;;;;;0.99;59.37;101988.66;5082891;28;45370;-76
2024/01/10 03:54:22;;;;;;;;;44.25;36.75;;;;;1.25;59.73;102041.03;5075893;28;45338;-77
2024/01/10 03:56:47;;;;;;;;;54.50;38.75;;;;;1.11;59.47;102040.63;5075690;28;45302;-77
2024/01/10 03:59:13;;;;;;;;;38.00;36.50;;;;;0.96;59.64;102022.81;5075548;28;46084;-76
2024/01/10 04:01:39;;;;;;;;;42.00;38.00;;;;;0.95;60.06;102042.91;5057115;28;45545;-77
2024/01/10 04:04:04;;;;;;;;;38.00;36.00;;;;;1.02;60.17;102048.81;5078540;28;45354;-77
2024/01/10 04:06:30;;;;;;;;;43.25;37.75;;;;;1.14;59.88;102051.84;5083125;28;45231;-76
2024/01/10 04:08:55;;;;;;;;;36.67;33.33;;;;;1.15;59.99;102040.47;5075453;28;45949;-75
2024/01/10 04:11:20;;;;;;;;;40.00;36.50;;;;;1.33;59.28;102054.72;5075954;28;45417;-76
2024/01/10 04:13:46;;;;;;;;;36.33;34.00;;;;;1.40;58.86;102040.50;5075839;28;45595;-75
2024/01/10 04:16:11;;;;;;;;;29.75;27.00;;;;;1.43;58.41;102044.78;5075688;28;45520;-75
2024/01/10 04:18:37;;;;;;;;;37.33;31.33;;;;;1.18;58.57;102014.16;5074291;28;45900;-74
2024/01/10 04:21:02;;;;;;;;;42.25;36.25;;;;;1.44;58.09;102036.84;5075031;28;45278;-76
2024/01/10 04:23:28;;;;;;;;;43.25;34.75;;;;;1.33;58.08;102015.41;5074044;27;45402;-74
2024/01/10 04:25:53;;;;;;;;;37.50;33.50;;;;;1.41;58.16;102030.88;5075369;28;45484;-74
2024/01/10 04:28:19;;;;;;;;;49.75;36.50;;;;;1.29;57.66;102000.72;5055620;28;46057;-75
2024/01/10 04:30:44;;;;;;;;;39.00;32.25;;;;;1.41;58.18;102030.88;5073814;28;45461;-75
2024/01/10 04:33:10;;;;;;;;;44.00;36.25;;;;;1.50;58.28;102022.69;5074304;28;45915;-75
2024/01/10 04:35:35;;;;;;;;;41.75;38.50;;;;;1.62;57.83;102019.63;5075086;28;45342;-73
2024/01/10 04:38:01;;;;;;;;;42.50;36.75;;;;;1.30;57.80;101985.84;5074660;28;45649;-77
2024/01/10 04:40:26;;;;;;;;;38.50;36.75;;;;;1.56;57.80;102018.97;5074909;28;45626;-75
2024/01/10 04:42:51;;;;;;;;;43.50;35.00;;;;;1.61;57.68;102014.44;5075572;28;45799;-75
2024/01/10 04:45:17;;;;;;;;;40.00;34.00;;;;;1.22;57.42;101949.44;5056632;28;45476;-74
2024/01/10 04:47:44;;;;;;;;;41.25;33.75;;;;;1.57;57.68;102029.41;5074541;28;46971;-75
2024/01/10 04:50:10;;;;;;;;;40.50;36.00;;;;;1.29;57.58;101990.22;5074323;28;45496;-74
2024/01/10 04:52:35;;;;;;;;;39.67;32.67;;;;;1.42;58.20;102011.63;5074302;28;45460;-74
2024/01/10 04:55:02;;;;;;;;;41.67;35.00;;;;;1.44;58.56;102020.28;5056589;28;45515;-75
2024/01/10 04:57:28;;;;;;;;;39.75;35.25;;;;;1.43;57.99;102014.19;5074767;28;46279;-75
2024/01/10 04:59:53;;;;;;;;;42.50;38.25;;;;;1.45;58.15;102014.97;5074397;28;45414;-75
2024/01/10 05:02:19;;;;;;;;;43.50;34.25;;;;;1.33;58.46;101991.81;5056490;28;45264;-76
2024/01/10 05:04:44;;;;;;;;;35.50;31.75;;;;;1.37;57.50;101987.31;5074482;28;45282;-76
2024/01/10 05:07:10;;;;;;;;;37.00;33.00;;;;;1.47;58.38;101994.81;5074038;28;45472;-76
2024/01/10 05:09:36;;;;;;;;;40.25;34.75;;;;;1.51;57.47;102001.66;5055828;28;45480;-76
2024/01/10 05:12:01;;;;;;;;;42.25;34.75;;;;;1.45;58.02;101994.03;5074568;28;45390;-75
2024/01/10 05:14:27;;;;;;;;;37.50;33.00;;;;;1.53;57.51;102005.06;5073368;28;45491;-78
2024/01/10 05:16:53;;;;;;;;;40.75;35.00;;;;;1.37;57.67;101975.09;5056732;28;46016;-76
2024/01/10 05:19:19;;;;;;;;;39.75;36.50;;;;;1.59;57.91;102005.75;5053878;28;45459;-76
2024/01/10 05:21:44;;;;;;;;;46.00;38.00;;;;;1.50;57.57;101991.22;5053978;28;45487;-75
2024/01/10 05:24:10;;;;;;;;;40.00;33.75;;;;;1.62;57.63;102005.66;5036993;28;46702;-75
2024/01/10 05:26:35;;;;;;;;;40.00;34.25;;;;;1.68;57.51;102002.81;5034197;28;46310;-75
2024/01/10 05:29:01;;;;;;;;;44.50;36.00;;;;;1.45;57.28;101970.44;5052013;28;45483;-75
2024/01/10 05:31:26;;;;;;;;;37.50;33.25;;;;;1.44;57.04;101970.50;5053700;28;45422;-75
2024/01/10 05:33:52;;;;;;;;;39.00;34.67;;;;;1.75;57.54;101999.91;5055640;28;45403;-76
2024/01/10 05:36:22;;;;;;;;;36.67;31.00;;;;;1.86;57.57;102003.91;5054276;28;46255;-76
2024/01/10 05:38:47;;;;;;;;;51.75;38.25;;;;;1.65;57.12;101980.19;5053804;28;45382;-75
2024/01/10 05:41:14;;;;;;;;;50.50;40.25;;;;;1.50;57.22;101999.09;5035597;28;45669;-75
2024/01/10 05:43:39;;;;;;;;;45.50;39.25;;;;;1.31;57.83;101987.56;5054302;28;45455;-76
2024/01/10 05:46:05;;;;;;;;;37.67;31.00;;;;;1.47;58.06;102007.06;5053187;28;46583;-76
2024/01/10 05:48:30;;;;;;;;;39.25;31.25;;;;;1.46;57.95;102006.22;5053594;28;45550;-77
2024/01/10 05:50:56;;;;;;;;;42.25;38.00;;;;;1.51;57.74;102001.66;5053506;28;45472;-75
2024/01/10 05:53:23;;;;;;;;;34.25;25.50;;;;;1.52;57.80;101987.63;5053659;28;45384;-78
2024/01/10 05:55:49;;;;;;;;;47.67;37.67;;;;;1.74;57.92;101999.94;5053268;28;46132;-76
2024/01/10 05:58:14;;;;;;;;;37.67;32.67;;;;;1.82;57.07;101996.16;5053488;28;45374;-76
2024/01/10 06:00:39;;;;;;;;;44.50;36.75;;;;;1.77;57.50;101981.47;5053733;28;45401;-76
2024/01/10 06:03:05;;;;;;;;;39.00;36.00;;;;;1.93;57.48;101995.72;5053712;28;45523;-75
2024/01/10 06:05:33;;;;;;;;;43.50;34.25;;;;;1.55;57.84;101975.31;5053764;28;46089;-74
2024/01/10 06:07:58;;;;;;;;;41.00;37.00;;;;;1.51;58.41;101988.53;5053096;28;45401;-74
2024/01/10 06:10:24;;;;;;;;;45.25;38.25;;;;;1.64;57.88;101998.59;5053262;28;45416;-75
2024/01/10 06:12:49;;;;;;;;;42.33;36.00;;;;;1.75;57.90;101996.41;5029084;28;45467;-77
2024/01/10 06:15:15;;;;;;;;;46.50;36.25;;;;;1.74;57.48;101987.69;5055361;27;46184;-79
2024/01/10 06:17:40;;;;;;;;;44.33;34.33;;;;;1.72;57.30;101978.19;5055192;28;45474;-76
2024/01/10 06:20:07;;;;;;;;;35.75;29.75;;;;;1.55;57.81;101949.13;5073883;28;45505;-75
2024/01/10 06:22:32;;;;;;;;;46.00;38.50;;;;;1.59;57.08;101961.19;5063971;28;45499;-79
2024/01/10 06:24:58;;;;;;;;;41.50;38.00;;;;;1.31;57.68;101964.84;5051093;28;45364;-76
2024/01/10 06:27:23;;;;;;;;;39.00;33.33;;;;;1.32;57.42;101990.13;5078697;28;45199;-78
2024/01/10 06:29:48;;;;;;;;;43.50;36.75;;;;;1.31;57.49;101991.03;5077791;28;44909;-77
2024/01/10 06:32:17;;;;;;;;;34.00;27.50;;;;;0.89;57.67;101965.41;5094992;28;44974;-74
2024/01/10 06:34:42;;;;;;;;;37.00;30.50;;;;;0.74;58.08;101939.75;5093232;28;46265;-74
2024/01/10 06:37:08;;;;;;;;;38.50;35.75;;;;;0.91;58.01;101953.13;5093688;28;45143;-77
2024/01/10 06:39:34;;;;;;;;;48.00;39.50;;;;;1.14;57.06;101988.13;5092772;28;45091;-75
2024/01/10 06:42:00;;;;;;;;;39.67;34.67;;;;;1.18;56.57;101976.63;5091652;28;45218;-75
2024/01/10 06:44:27;;;;;;;;;40.50;34.00;;;;;1.24;55.98;101975.59;5068667;28;46336;-77
2024/01/10 06:46:53;;;;;;;;;35.33;32.33;;;;;1.39;55.55;101988.97;5088803;28;45222;-79
2024/01/10 06:49:18;;;;;;;;;32.67;30.00;;;;;1.27;55.20;101978.94;5089290;28;45430;-79
2024/01/10 06:51:43;;;;;;;;;44.00;33.00;;;;;1.26;55.43;101979.00;5095097;28;45067;-77
2024/01/10 06:54:09;;;;;;;;;32.33;28.33;;;;;1.23;55.19;101972.13;5093116;28;45587;-78
2024/01/10 06:56:35;;;;;;;;;38.75;33.00;;;;;1.27;55.04;101985.97;5092449;28;45060;-75
2024/01/10 06:59:01;;;;;;;;;37.00;29.75;;;;;1.36;55.31;101980.38;5091996;28;45306;-79
2024/01/10 07:01:27;;;;;;;;;31.75;28.75;;;;;1.29;54.98;101985.00;5086989;28;45229;-77
2024/01/10 07:03:56;;;;;;;;;14.25;10.75;;;;;1.01;55.26;101942.34;5075076;28;45594;-75
2024/01/10 07:06:22;;;;;;;;;34.50;31.00;;;;;1.39;54.99;101990.75;5080118;28;45515;-78
2024/01/10 07:08:49;;;;;;;;;41.25;37.25;;;;;1.36;54.76;101981.22;5078510;28;45287;-79
2024/01/10 07:11:16;;;;;;;;;40.50;35.75;;;;;1.51;54.08;101988.53;5073507;28;45456;-77
2024/01/10 07:13:42;;;;;;;;;41.50;32.25;;;;;1.70;54.32;101998.38;5076841;28;46324;-79
2024/01/10 07:16:10;;;;;;;;;41.25;33.00;;;;;1.68;54.23;101997.56;5059197;28;45393;-74
2024/01/10 07:18:35;;;;;;;;;41.75;31.50;;;;;1.55;53.73;101998.91;5065089;28;45418;-81
2024/01/10 07:21:05;;;;;;;;;34.50;28.50;;;;;1.52;53.76;102002.50;5090949;28;44966;-77
2024/01/10 07:23:32;;;;;;;;;41.00;36.00;;;;;1.64;54.04;102006.47;5084398;28;45780;-75
2024/01/10 07:25:58;;;;;;;;;33.25;26.50;;;;;1.57;53.71;101999.72;5084317;28;45606;-76
2024/01/10 07:28:25;;;;;;;;;39.00;32.75;;;;;1.29;54.10;101981.50;5078975;28;45504;-77
2024/01/10 07:30:50;;;;;;;;;41.00;36.67;;;;;1.39;53.61;102006.47;5078420;28;45374;-77
2024/01/10 07:33:16;;;;;;;;;32.33;29.00;;;;;1.35;53.93;102005.72;5077297;28;45481;-79
2024/01/10 07:35:41;;;;;;;;;27.75;25.50;;;;;1.44;53.96;102008.03;5058290;28;45506;-74
2024/01/10 07:38:09;;;;;;;;;37.50;29.75;;;;;1.34;53.29;102009.25;5076312;28;45327;-76
2024/01/10 07:40:35;;;;;;;;;33.33;28.00;;;;;1.26;54.15;102000.81;5077057;28;45370;-75
2024/01/10 07:43:01;;;;;;;;;33.33;27.33;;;;;1.32;54.59;102011.06;5076964;28;45277;-76
2024/01/10 07:45:27;;;;;;;;;35.33;29.33;;;;;1.14;53.83;101975.03;5077126;28;45532;-73
2024/01/10 07:47:52;;;;;;;;;33.00;30.33;;;;;1.39;54.24;102007.31;5078483;28;45648;-76
2024/01/10 07:50:19;;;;;;;;;29.33;25.00;;;;;0.62;53.90;101863.44;5079168;28;45282;-77
2024/01/10 07:52:46;;;;;;;;;36.67;26.00;;;;;1.58;53.54;102009.28;5080311;28;46150;-79
2024/01/10 07:55:11;;;;;;;;;43.50;37.00;;;;;1.60;53.46;102004.84;5082013;28;45598;-81
2024/01/10 07:57:37;;;;;;;;;40.75;33.25;;;;;1.55;53.48;101994.53;5095626;28;45021;-77
2024/01/10 08:00:04;;;;;;;;;40.00;36.00;;;;;1.68;52.32;102026.41;5082950;28;45212;-82
2024/01/10 08:02:34;;;;;;;;;34.00;28.33;;;;;1.52;52.41;101987.63;5087941;28;47045;-78
2024/01/10 08:05:08;;;;;;;;;32.75;28.00;;;;;1.39;52.35;101965.41;5084720;28;45507;-77
2024/01/10 08:07:34;;;;;;;;;25.67;24.33;;;;;1.83;51.99;102016.22;5083780;28;45512;-80
2024/01/10 08:10:00;;;;;;;;;30.00;24.67;;;;;1.87;51.49;102018.72;5062686;28;45489;-78
2024/01/10 08:12:25;;;;;;;;;31.33;30.00;;;;;1.89;52.30;102007.25;5081326;28;45416;-78
2024/01/10 08:14:51;;;;;;;;;27.00;25.33;;;;;1.98;51.65;102021.78;5080648;28;45445;-77
2024/01/10 08:17:16;;;;;;;;;31.67;28.00;;;;;1.73;51.55;102004.34;5087269;28;45370;-78
2024/01/10 08:19:42;;;;;;;;;37.00;30.33;;;;;1.10;52.42;101942.88;5077258;28;45220;-78
2024/01/10 08:22:08;;;;;;;;;38.75;31.25;;;;;1.37;52.13;101992.56;5087941;28;45445;-78
2024/01/10 08:24:33;;;;;;;;;32.67;29.00;;;;;1.53;52.68;102012.06;5074964;27;45655;-79
2024/01/10 08:26:59;;;;;;;;;31.00;25.25;;;;;1.18;52.95;101945.22;5100369;27;45988;-78
2024/01/10 08:29:30;;;;;;;;;34.67;31.33;;;;;1.79;52.20;102035.56;5080947;27;45489;-80
2024/01/10 08:31:56;;;;;;;;;40.00;33.33;;;;;1.64;52.35;102017.81;5095977;27;46469;-76
2024/01/10 08:34:21;;;;;;;;;40.33;32.67;;;;;1.73;52.36;102027.09;5079859;28;45830;-78
2024/01/10 08:36:50;;;;;;;;;40.50;30.50;;;;;1.83;51.83;102025.84;5073432;28;45355;-78
2024/01/10 08:39:16;;;;;;;;;34.00;28.00;;;;;1.82;52.27;102000.53;5064216;28;45362;-80
2024/01/10 08:41:44;;;;;;;;;29.67;27.67;;;;;2.00;52.28;102012.97;5071743;28;46179;-79
2024/01/10 08:44:10;;;;;;;;;35.33;30.00;;;;;2.12;52.72;102020.34;5071352;28;45473;-80
2024/01/10 08:46:36;;;;;;;;;43.50;38.25;;;;;1.84;52.19;102040.66;5089615;27;45379;-82
2024/01/10 08:49:01;;;;;;;;;35.33;34.33;;;;;1.72;52.75;102030.63;5094881;28;44916;-78
2024/01/10 08:51:27;;;;;;;;;33.67;29.00;;;;;1.31;53.62;101972.69;5094040;27;45739;-77
2024/01/10 08:53:52;;;;;;;;;43.00;38.00;;;;;1.62;53.65;102029.25;5084485;28;45271;-79
2024/01/10 08:56:19;;;;;;;;;39.00;32.00;;;;;1.44;52.75;102046.50;5078677;27;45337;-77
2024/01/10 08:58:45;;;;;;;;;36.00;31.50;;;;;1.46;53.97;102034.19;5080444;28;45450;-82
2024/01/10 09:01:10;;;;;;;;;41.00;34.25;;;;;1.25;53.13;101978.16;5079568;27;45903;-77
2024/01/10 09:03:37;;;;;;;;;37.50;33.25;;;;;1.71;53.06;102049.88;5080686;28;45304;-81
2024/01/10 09:06:03;;;;;;;;;33.33;28.00;;;;;1.58;52.71;102038.13;5089332;27;45508;-79
2024/01/10 09:08:29;;;;;;;;;33.25;31.50;;;;;1.63;52.69;102049.31;5099601;27;45421;-75
2024/01/10 09:10:54;;;;;;;;;43.25;36.50;;;;;1.68;52.82;102052.63;5089786;27;46109;-82
2024/01/10 09:13:20;;;;;;;;;40.67;34.67;;;;;1.77;53.23;102052.28;5079749;28;45408;-76
2024/01/10 09:15:46;;;;;;;;;39.33;33.67;;;;;1.77;52.66;102041.78;5086597;27;45526;-75
2024/01/10 09:18:11;;;;;;;;;34.33;31.67;;;;;1.82;52.96;102026.75;5099978;27;45379;-76
2024/01/10 09:20:37;;;;;;;;;33.00;29.33;;;;;1.93;52.55;102045.56;5093049;27;45746;-77
2024/01/10 09:23:03;;;;;;;;;37.00;30.00;;;;;1.90;53.16;102032.56;5079580;28;45232;-79
2024/01/10 09:25:29;;;;;;;;;32.33;29.33;;;;;1.72;52.46;102014.88;5083994;27;45272;-77
2024/01/10 09:27:55;;;;;;;;;39.75;37.75;;;;;1.90;52.04;102060.56;5065538;28;44761;-79
2024/01/10 09:30:21;;;;;;;;;38.50;31.25;;;;;1.88;52.89;102060.63;5062592;28;46502;-80
2024/01/10 09:32:47;;;;;;;;;32.33;28.67;;;;;1.38;52.21;101968.94;5044373;28;45217;-79
2024/01/10 09:35:13;;;;;;;;;31.00;31.00;;;;;1.84;52.24;102056.41;5063038;27;45341;-78
2024/01/10 09:37:38;;;;;;;;;32.67;28.33;;;;;1.34;52.12;101976.97;5064929;28;45561;-81
2024/01/10 09:40:08;;;;;;;;;40.67;31.00;;;;;1.98;52.17;102051.47;5083893;27;45335;-80
2024/01/10 09:42:36;;;;;;;;;33.00;32.00;;;;;2.19;51.82;102056.84;5086345;27;45460;-80
2024/01/10 09:45:04;;;;;;;;;31.67;27.33;;;;;1.24;51.84;101874.28;5078616;28;45377;-78
2024/01/10 09:47:32;;;;;;;;;35.00;30.00;;;;;2.38;50.40;102050.81;5057679;28;45495;-79
2024/01/10 09:49:57;;;;;;;;;33.33;31.00;;;;;2.40;49.80;102056.00;5064183;28;45979;-80
2024/01/10 09:52:27;;;;;;;;;34.67;32.33;;;;;2.35;50.08;102042.22;5059599;28;45367;-81
2024/01/10 09:54:57;;;;;;;;;34.67;30.00;;;;;2.52;50.04;102054.69;5061432;28;45529;-77
2024/01/10 09:57:26;;;;;;;;;34.67;31.67;;;;;2.33;50.03;102057.16;5108293;27;45485;-78
2024/01/10 09:59:52;;;;;;;;;31.33;28.33;;;;;2.41;50.45;102069.09;5090915;27;46930;-78
2024/01/10 10:02:19;;;;;;;;;32.33;24.67;;;;;2.37;49.53;102056.13;5103791;27;45479;-78
2024/01/10 10:05:02;;;;;;;;;35.00;33.33;;;;;2.48;49.52;102067.09;5101019;27;45452;-79
2024/01/10 10:07:27;;;;;;;;;33.33;28.00;;;;;2.32;49.37;102048.44;5101265;27;45403;-77
2024/01/10 10:09:56;;;;;;;;;33.00;28.67;;;;;2.54;49.92;102058.97;5101285;27;46222;-75
2024/01/10 10:12:23;;;;;;;;;37.33;30.67;;;;;2.57;49.13;102066.72;5082582;27;45422;-77
2024/01/10 10:14:49;;;;;;;;;38.67;31.33;;;;;2.31;49.07;102041.50;5061946;28;45391;-77
2024/01/10 10:17:15;;;;;;;;;31.67;25.33;;;;;2.45;50.06;102064.59;5097216;27;45683;-78
2024/01/10 10:19:41;;;;;;;;;36.67;26.67;;;;;2.42;48.87;102039.31;5099943;27;45510;-79
2024/01/10 10:22:10;;;;;;;;;31.33;25.67;;;;;2.50;49.26;102054.75;5085026;27;45295;-78
2024/01/10 10:24:36;;;;;;;;;28.00;25.33;;;;;1.66;48.55;101923.38;5081008;28;45445;-79
2024/01/10 10:27:07;;;;;;;;;38.67;31.00;;;;;2.03;48.40;101996.25;5081468;27;45461;-77
2024/01/10 10:29:32;;;;;;;;;30.33;27.00;;;;;1.75;49.57;101954.47;5061261;28;48223;-79
2024/01/10 10:31:57;;;;;;;;;22.33;21.00;;;;;2.34;49.31;102056.25;5079026;27;45476;-77
2024/01/10 10:34:23;;;;;;;;;26.33;19.67;;;;;2.16;49.38;101994.84;5079892;28;45691;-77
2024/01/10 10:36:48;;;;;;;;;31.67;26.33;;;;;2.44;48.72;102052.38;5080498;27;45373;-77
2024/01/10 10:39:18;;;;;;;;;38.67;35.00;;;;;1.03;48.55;101799.13;5080096;28;45917;-78
2024/01/10 10:41:47;;;;;;;;;28.33;25.00;;;;;2.55;48.86;102044.91;5061244;28;45512;-76
2024/01/10 10:44:18;;;;;;;;;34.67;28.67;;;;;2.67;48.77;102041.81;5081812;28;45580;-79
2024/01/10 10:46:45;;;;;;;;;30.67;29.33;;;;;2.82;48.24;102040.34;5081030;28;45465;-76
2024/01/10 10:49:12;;;;;;;;;35.00;33.33;;;;;2.68;47.57;102012.00;5081980;28;45433;-77
2024/01/10 10:51:38;;;;;;;;;41.33;36.00;;;;;2.82;48.08;102032.47;5079936;28;45492;-77
2024/01/10 10:54:04;;;;;;;;;24.00;23.33;;;;;2.77;47.50;102023.03;5079804;28;45331;-77
2024/01/10 10:56:33;;;;;;;;;31.33;27.33;;;;;2.77;48.15;102012.53;5082121;28;45421;-76
2024/01/10 10:59:00;;;;;;;;;28.00;28.00;;;;;2.24;47.51;101914.09;5081752;28;46248;-77
2024/01/10 11:01:27;;;;;;;;;31.67;28.00;;;;;3.00;47.94;102015.94;5072618;28;45493;-77
2024/01/10 11:03:54;;;;;;;;;35.33;27.00;;;;;2.29;47.48;101877.16;5059238;28;45549;-78
2024/01/10 11:06:21;;;;;;;;;31.67;29.67;;;;;3.35;47.27;102037.22;5058339;28;46154;-75
2024/01/10 11:08:53;;;;;;;;;28.33;28.33;;;;;3.46;47.42;102023.63;5058144;28;46088;-78
2024/01/10 11:11:34;;;;;;;;;33.67;29.00;;;;;3.49;46.96;102032.22;5056762;28;45699;-75